Airfield :
LOGIN :

Register | Disclaimer

   EN    FR    IT 

 










Legend :    VFR   Marginal VFR   IFR   Intensive IFR   Very Intensive IFR
Visi :
Ceiling :
>= 8 km
>= 3000ft
5 to 8 km
1000 to 3000 ft
1500m to 5 km
500 to 1000 ft
800 to 1500m
200 to 500 ft
< 800m
< 200 ft
Symbols :   Thunderstorms  Fog  Heavy snow  Heavy precipitations  Wind > 20 kt
SIGMETs :     Misc.  Thunderstorms  Icing  Turbulence  Mountain Waves  Volcanic Ashes






- Airport Elevation : 485 ft
- IATA code : QSA


LELL - Sabadell

CURRENT METAR :
  • 071500Z 13009KT 080V160 9999 FEW017 SCT020 BKN045 19/15 Q1017

EXPIRED METARs :
  • 071430Z 14011KT 100V160 9999 FEW020 SCT040 19/15 Q1017
  • 071330Z 13013KT 080V160 9999 FEW045 20/15 Q1017
  • 071300Z 14012KT 100V160 9999 FEW045 20/15 Q1017
  • 071230Z 12011KT 100V160 9999 FEW045 20/14 Q1017

TAF TAF LELL
Valid from the 07 at 15:00 until the 08 at 15:00 UTC


071400Z 0715/0815 13010KT 9999 FEW020 TX25/0813Z TN11/0806Z
BECMG 0718/0720 VRB03KT
BECMG 0807/0809 17010KT



MET'MAP, your aeronautical weather chart ! - Copyright ORBIFLY December 2007 - Disclaimer

ORBIFLY MET'MAP TEAM :

Programming & Development : Alexandra Zaïnal
Concept & original design : Baudouin d'Aumeries
Assistance for programming : Marc-Olivier Méhu
Technical & hardware support : Manuel Goepfert

Contact : metmap@orbifly.com




SOURCES & CREDITS :

   NOAA